sensor_id;sensor_type;location;lat;lon;timestamp;temperature;humidity
72128;DHT22;60000;51.030;7.024;2024-02-26T00:01:03;7.54;69.24
72128;DHT22;60000;51.030;7.024;2024-02-26T00:03:28;7.51;69.78
72128;DHT22;60000;51.030;7.024;2024-02-26T00:05:53;7.51;70.41
72128;DHT22;60000;51.030;7.024;2024-02-26T00:08:19;7.47;70.61
72128;DHT22;60000;51.030;7.024;2024-02-26T00:10:44;7.42;70.62
72128;DHT22;60000;51.030;7.024;2024-02-26T00:13:09;7.39;71.32
72128;DHT22;60000;51.030;7.024;2024-02-26T00:15:35;7.37;71.53
72128;DHT22;60000;51.030;7.024;2024-02-26T00:18:01;7.34;71.82
72128;DHT22;60000;51.030;7.024;2024-02-26T00:20:26;7.32;71.96
72128;DHT22;60000;51.030;7.024;2024-02-26T00:22:52;7.29;72.22
72128;DHT22;60000;51.030;7.024;2024-02-26T00:25:17;7.26;72.74
72128;DHT22;60000;51.030;7.024;2024-02-26T00:27:42;7.23;73.28
72128;DHT22;60000;51.030;7.024;2024-02-26T00:30:09;7.20;73.38
72128;DHT22;60000;51.030;7.024;2024-02-26T00:32:35;7.18;73.39
72128;DHT22;60000;51.030;7.024;2024-02-26T00:35:00;7.18;73.72
72128;DHT22;60000;51.030;7.024;2024-02-26T00:37:26;7.15;73.81
72128;DHT22;60000;51.030;7.024;2024-02-26T00:39:51;7.16;73.98
72128;DHT22;60000;51.030;7.024;2024-02-26T00:42:18;7.16;74.14
72128;DHT22;60000;51.030;7.024;2024-02-26T00:44:43;7.15;74.11
72128;DHT22;60000;51.030;7.024;2024-02-26T00:47:08;7.15;74.17
72128;DHT22;60000;51.030;7.024;2024-02-26T00:49:34;7.16;74.23
72128;DHT22;60000;51.030;7.024;2024-02-26T00:51:59;7.16;74.18
72128;DHT22;60000;51.030;7.024;2024-02-26T00:54:24;7.18;74.33
72128;DHT22;60000;51.030;7.024;2024-02-26T00:56:50;7.18;74.38
72128;DHT22;60000;51.030;7.024;2024-02-26T00:59:15;7.16;74.50
72128;DHT22;60000;51.030;7.024;2024-02-26T01:01:40;7.20;74.77
72128;DHT22;60000;51.030;7.024;2024-02-26T01:04:06;7.16;74.78
72128;DHT22;60000;51.030;7.024;2024-02-26T01:06:31;7.15;74.90
72128;DHT22;60000;51.030;7.024;2024-02-26T01:08:56;7.16;75.12
72128;DHT22;60000;51.030;7.024;2024-02-26T01:11:22;7.15;75.18
72128;DHT22;60000;51.030;7.024;2024-02-26T01:13:47;7.16;75.30
72128;DHT22;60000;51.030;7.024;2024-02-26T01:16:12;7.15;75.59
72128;DHT22;60000;51.030;7.024;2024-02-26T01:18:37;7.11;75.85
72128;DHT22;60000;51.030;7.024;2024-02-26T01:21:03;7.12;76.03
72128;DHT22;60000;51.030;7.024;2024-02-26T01:23:32;7.11;76.16
72128;DHT22;60000;51.030;7.024;2024-02-26T01:25:57;7.11;76.67
72128;DHT22;60000;51.030;7.024;2024-02-26T01:28:22;7.05;76.93
72128;DHT22;60000;51.030;7.024;2024-02-26T01:30:48;7.02;76.96
72128;DHT22;60000;51.030;7.024;2024-02-26T01:33:13;7.02;77.50
72128;DHT22;60000;51.030;7.024;2024-02-26T01:35:38;7.03;77.46
72128;DHT22;60000;51.030;7.024;2024-02-26T01:38:04;6.98;77.88
72128;DHT22;60000;51.030;7.024;2024-02-26T01:40:29;6.96;78.12
72128;DHT22;60000;51.030;7.024;2024-02-26T01:42:55;6.92;78.36
72128;DHT22;60000;51.030;7.024;2024-02-26T01:45:20;6.91;78.98
72128;DHT22;60000;51.030;7.024;2024-02-26T01:47:52;6.88;79.04
72128;DHT22;60000;51.030;7.024;2024-02-26T01:50:18;6.88;79.20
72128;DHT22;60000;51.030;7.024;2024-02-26T01:52:45;6.84;79.42
72128;DHT22;60000;51.030;7.024;2024-02-26T01:55:13;6.81;79.73
72128;DHT22;60000;51.030;7.024;2024-02-26T01:57:40;6.81;80.12
72128;DHT22;60000;51.030;7.024;2024-02-26T02:00:06;6.77;80.25
72128;DHT22;60000;51.030;7.024;2024-02-26T02:02:33;6.78;80.41
72128;DHT22;60000;51.030;7.024;2024-02-26T02:04:59;6.74;80.64
72128;DHT22;60000;51.030;7.024;2024-02-26T02:07:24;6.72;80.82
72128;DHT22;60000;51.030;7.024;2024-02-26T02:09:50;6.70;80.92
72128;DHT22;60000;51.030;7.024;2024-02-26T02:12:15;6.72;81.07
72128;DHT22;60000;51.030;7.024;2024-02-26T02:14:41;6.67;81.23
72128;DHT22;60000;51.030;7.024;2024-02-26T02:17:07;6.68;81.42
72128;DHT22;60000;51.030;7.024;2024-02-26T02:19:32;6.64;81.49
72128;DHT22;60000;51.030;7.024;2024-02-26T02:21:57;6.63;81.68
72128;DHT22;60000;51.030;7.024;2024-02-26T02:24:23;6.61;81.73
72128;DHT22;60000;51.030;7.024;2024-02-26T02:26:48;6.60;81.83
72128;DHT22;60000;51.030;7.024;2024-02-26T02:29:14;6.58;81.87
72128;DHT22;60000;51.030;7.024;2024-02-26T02:31:40;6.58;81.96
72128;DHT22;60000;51.030;7.024;2024-02-26T02:34:05;6.57;82.07
72128;DHT22;60000;51.030;7.024;2024-02-26T02:36:31;6.58;82.23
72128;DHT22;60000;51.030;7.024;2024-02-26T02:38:56;6.55;82.31
72128;DHT22;60000;51.030;7.024;2024-02-26T02:41:21;6.57;82.44
72128;DHT22;60000;51.030;7.024;2024-02-26T02:43:47;6.55;82.53
72128;DHT22;60000;51.030;7.024;2024-02-26T02:46:12;6.54;82.55
72128;DHT22;60000;51.030;7.024;2024-02-26T02:48:38;6.55;82.59
72128;DHT22;60000;51.030;7.024;2024-02-26T02:51:04;6.55;82.64
72128;DHT22;60000;51.030;7.024;2024-02-26T02:53:29;6.55;82.64
72128;DHT22;60000;51.030;7.024;2024-02-26T02:55:55;6.57;82.78
72128;DHT22;60000;51.030;7.024;2024-02-26T02:58:20;6.55;82.96
72128;DHT22;60000;51.030;7.024;2024-02-26T03:00:45;6.55;83.02
72128;DHT22;60000;51.030;7.024;2024-02-26T03:03:10;6.54;83.07
72128;DHT22;60000;51.030;7.024;2024-02-26T03:05:36;6.54;83.15
72128;DHT22;60000;51.030;7.024;2024-02-26T03:08:01;6.53;83.21
72128;DHT22;60000;51.030;7.024;2024-02-26T03:10:26;6.53;83.27
72128;DHT22;60000;51.030;7.024;2024-02-26T03:12:53;6.53;83.41
72128;DHT22;60000;51.030;7.024;2024-02-26T03:15:18;6.53;83.43
72128;DHT22;60000;51.030;7.024;2024-02-26T03:17:44;6.51;83.56
72128;DHT22;60000;51.030;7.024;2024-02-26T03:20:09;6.54;83.63
72128;DHT22;60000;51.030;7.024;2024-02-26T03:22:35;6.50;83.72
72128;DHT22;60000;51.030;7.024;2024-02-26T03:25:01;6.50;83.82
72128;DHT22;60000;51.030;7.024;2024-02-26T03:27:26;6.50;83.90
72128;DHT22;60000;51.030;7.024;2024-02-26T03:29:52;6.50;83.95
72128;DHT22;60000;51.030;7.024;2024-02-26T03:32:18;6.48;84.12
72128;DHT22;60000;51.030;7.024;2024-02-26T03:34:43;6.48;84.07
72128;DHT22;60000;51.030;7.024;2024-02-26T03:37:08;6.50;84.26
72128;DHT22;60000;51.030;7.024;2024-02-26T03:39:36;6.48;84.26
72128;DHT22;60000;51.030;7.024;2024-02-26T03:42:01;6.48;84.31
72128;DHT22;60000;51.030;7.024;2024-02-26T03:44:27;6.50;84.38
72128;DHT22;60000;51.030;7.024;2024-02-26T03:46:52;6.47;84.49
72128;DHT22;60000;51.030;7.024;2024-02-26T03:49:17;6.47;84.51
72128;DHT22;60000;51.030;7.024;2024-02-26T03:51:43;6.48;84.62
72128;DHT22;60000;51.030;7.024;2024-02-26T03:54:08;6.48;84.62
72128;DHT22;60000;51.030;7.024;2024-02-26T03:56:33;6.48;84.72
72128;DHT22;60000;51.030;7.024;2024-02-26T03:58:59;6.48;84.83
72128;DHT22;60000;51.030;7.024;2024-02-26T04:01:26;6.51;84.92
72128;DHT22;60000;51.030;7.024;2024-02-26T04:03:52;6.48;85.00
72128;DHT22;60000;51.030;7.024;2024-02-26T04:06:18;6.48;85.07
72128;DHT22;60000;51.030;7.024;2024-02-26T04:08:44;6.45;85.14
72128;DHT22;60000;51.030;7.024;2024-02-26T04:11:10;6.47;85.13
72128;DHT22;60000;51.030;7.024;2024-02-26T04:13:36;6.44;85.23
72128;DHT22;60000;51.030;7.024;2024-02-26T04:16:06;6.45;85.32
72128;DHT22;60000;51.030;7.024;2024-02-26T04:18:32;6.44;85.35
72128;DHT22;60000;51.030;7.024;2024-02-26T04:20:57;6.43;85.42
72128;DHT22;60000;51.030;7.024;2024-02-26T04:23:23;6.41;85.55
72128;DHT22;60000;51.030;7.024;2024-02-26T04:25:48;6.41;85.65
72128;DHT22;60000;51.030;7.024;2024-02-26T04:28:14;6.43;85.73
72128;DHT22;60000;51.030;7.024;2024-02-26T04:30:40;6.40;85.81
72128;DHT22;60000;51.030;7.024;2024-02-26T04:33:05;6.43;85.83
72128;DHT22;60000;51.030;7.024;2024-02-26T04:35:31;6.41;85.92
72128;DHT22;60000;51.030;7.024;2024-02-26T04:37:56;6.43;85.94
72128;DHT22;60000;51.030;7.024;2024-02-26T04:40:22;6.43;85.95
72128;DHT22;60000;51.030;7.024;2024-02-26T04:42:47;6.43;86.01
72128;DHT22;60000;51.030;7.024;2024-02-26T04:45:12;6.43;86.15
72128;DHT22;60000;51.030;7.024;2024-02-26T04:47:38;6.40;86.26
72128;DHT22;60000;51.030;7.024;2024-02-26T04:50:03;6.40;86.36
72128;DHT22;60000;51.030;7.024;2024-02-26T04:52:29;6.40;86.44
72128;DHT22;60000;51.030;7.024;2024-02-26T04:54:54;6.38;86.58
72128;DHT22;60000;51.030;7.024;2024-02-26T04:57:21;6.38;86.69
72128;DHT22;60000;51.030;7.024;2024-02-26T04:59:46;6.38;86.85
72128;DHT22;60000;51.030;7.024;2024-02-26T05:02:12;6.36;86.94
72128;DHT22;60000;51.030;7.024;2024-02-26T05:04:37;6.36;87.06
72128;DHT22;60000;51.030;7.024;2024-02-26T05:07:03;6.34;87.21
72128;DHT22;60000;51.030;7.024;2024-02-26T05:09:28;6.37;87.33
72128;DHT22;60000;51.030;7.024;2024-02-26T05:11:54;6.33;87.47
72128;DHT22;60000;51.030;7.024;2024-02-26T05:14:19;6.33;87.66
72128;DHT22;60000;51.030;7.024;2024-02-26T05:16:44;6.33;87.82
72128;DHT22;60000;51.030;7.024;2024-02-26T05:19:11;6.29;87.86
72128;DHT22;60000;51.030;7.024;2024-02-26T05:21:36;6.27;88.04
72128;DHT22;60000;51.030;7.024;2024-02-26T05:24:02;6.29;88.10
72128;DHT22;60000;51.030;7.024;2024-02-26T05:26:27;6.27;88.21
72128;DHT22;60000;51.030;7.024;2024-02-26T05:28:52;6.26;88.29
72128;DHT22;60000;51.030;7.024;2024-02-26T05:31:17;6.24;88.41
72128;DHT22;60000;51.030;7.024;2024-02-26T05:33:43;6.23;88.46
72128;DHT22;60000;51.030;7.024;2024-02-26T05:36:09;6.23;88.51
72128;DHT22;60000;51.030;7.024;2024-02-26T05:38:34;6.24;88.59
72128;DHT22;60000;51.030;7.024;2024-02-26T05:41:00;6.23;88.63
72128;DHT22;60000;51.030;7.024;2024-02-26T05:43:28;6.22;88.65
72128;DHT22;60000;51.030;7.024;2024-02-26T05:45:54;6.24;88.73
72128;DHT22;60000;51.030;7.024;2024-02-26T05:48:19;6.22;88.74
72128;DHT22;60000;51.030;7.024;2024-02-26T05:50:46;6.23;88.79
72128;DHT22;60000;51.030;7.024;2024-02-26T05:53:11;6.22;88.81
72128;DHT22;60000;51.030;7.024;2024-02-26T05:55:37;6.20;88.81
72128;DHT22;60000;51.030;7.024;2024-02-26T05:58:02;6.20;88.83
72128;DHT22;60000;51.030;7.024;2024-02-26T06:00:28;6.19;88.87
72128;DHT22;60000;51.030;7.024;2024-02-26T06:02:53;6.22;88.97
72128;DHT22;60000;51.030;7.024;2024-02-26T06:05:18;6.19;88.99
72128;DHT22;60000;51.030;7.024;2024-02-26T06:07:44;6.20;89.03
72128;DHT22;60000;51.030;7.024;2024-02-26T06:10:09;6.19;89.08
72128;DHT22;60000;51.030;7.024;2024-02-26T06:12:35;6.19;89.15
72128;DHT22;60000;51.030;7.024;2024-02-26T06:15:01;6.23;89.19
72128;DHT22;60000;51.030;7.024;2024-02-26T06:17:26;6.20;89.20
72128;DHT22;60000;51.030;7.024;2024-02-26T06:19:51;6.17;89.24
72128;DHT22;60000;51.030;7.024;2024-02-26T06:22:17;6.14;89.23
72128;DHT22;60000;51.030;7.024;2024-02-26T06:24:42;6.17;89.28
72128;DHT22;60000;51.030;7.024;2024-02-26T06:27:07;6.16;89.29
72128;DHT22;60000;51.030;7.024;2024-02-26T06:29:33;6.17;89.37
72128;DHT22;60000;51.030;7.024;2024-02-26T06:31:59;6.17;89.40
72128;DHT22;60000;51.030;7.024;2024-02-26T06:34:24;6.16;89.45
72128;DHT22;60000;51.030;7.024;2024-02-26T06:36:49;6.19;89.35
72128;DHT22;60000;51.030;7.024;2024-02-26T06:39:15;6.19;89.37
72128;DHT22;60000;51.030;7.024;2024-02-26T06:41:41;6.17;89.41
72128;DHT22;60000;51.030;7.024;2024-02-26T06:44:06;6.19;89.53
72128;DHT22;60000;51.030;7.024;2024-02-26T06:46:32;6.16;89.63
72128;DHT22;60000;51.030;7.024;2024-02-26T06:48:57;6.16;89.69
72128;DHT22;60000;51.030;7.024;2024-02-26T06:51:22;6.19;89.73
72128;DHT22;60000;51.030;7.024;2024-02-26T06:53:49;6.17;89.77
72128;DHT22;60000;51.030;7.024;2024-02-26T06:56:14;6.16;89.84
72128;DHT22;60000;51.030;7.024;2024-02-26T06:58:39;6.16;89.91
72128;DHT22;60000;51.030;7.024;2024-02-26T07:01:05;6.17;89.93
72128;DHT22;60000;51.030;7.024;2024-02-26T07:03:30;6.19;90.00
72128;DHT22;60000;51.030;7.024;2024-02-26T07:05:55;6.16;89.99
72128;DHT22;60000;51.030;7.024;2024-02-26T07:08:21;6.16;90.05
72128;DHT22;60000;51.030;7.024;2024-02-26T07:10:46;6.19;90.05
72128;DHT22;60000;51.030;7.024;2024-02-26T07:13:12;6.17;90.04
72128;DHT22;60000;51.030;7.024;2024-02-26T07:15:37;6.16;90.05
72128;DHT22;60000;51.030;7.024;2024-02-26T07:18:02;6.14;90.06
72128;DHT22;60000;51.030;7.024;2024-02-26T07:20:31;6.14;89.97
72128;DHT22;60000;51.030;7.024;2024-02-26T07:22:57;6.14;90.00
72128;DHT22;60000;51.030;7.024;2024-02-26T07:25:22;6.13;90.01
72128;DHT22;60000;51.030;7.024;2024-02-26T07:27:49;6.17;89.75
72128;DHT22;60000;51.030;7.024;2024-02-26T07:30:15;6.17;89.82
72128;DHT22;60000;51.030;7.024;2024-02-26T07:32:41;6.19;89.81
72128;DHT22;60000;51.030;7.024;2024-02-26T07:35:07;6.19;89.81
72128;DHT22;60000;51.030;7.024;2024-02-26T07:37:32;6.17;89.72
72128;DHT22;60000;51.030;7.024;2024-02-26T07:39:57;6.16;89.74
72128;DHT22;60000;51.030;7.024;2024-02-26T07:42:23;6.19;89.69
72128;DHT22;60000;51.030;7.024;2024-02-26T07:44:48;6.17;89.68
72128;DHT22;60000;51.030;7.024;2024-02-26T07:47:13;6.16;89.58
72128;DHT22;60000;51.030;7.024;2024-02-26T07:49:39;6.17;89.49
72128;DHT22;60000;51.030;7.024;2024-02-26T07:52:05;6.19;89.50
72128;DHT22;60000;51.030;7.024;2024-02-26T07:54:30;6.17;89.39
72128;DHT22;60000;51.030;7.024;2024-02-26T07:56:56;6.17;89.46
72128;DHT22;60000;51.030;7.024;2024-02-26T07:59:21;6.20;89.31
72128;DHT22;60000;51.030;7.024;2024-02-26T08:01:50;6.17;89.34
72128;DHT22;60000;51.030;7.024;2024-02-26T08:04:16;6.20;89.37
72128;DHT22;60000;51.030;7.024;2024-02-26T08:06:41;6.20;89.51
72128;DHT22;60000;51.030;7.024;2024-02-26T08:09:08;6.22;89.44
72128;DHT22;60000;51.030;7.024;2024-02-26T08:11:33;6.19;89.37
72128;DHT22;60000;51.030;7.024;2024-02-26T08:13:59;6.20;89.37
72128;DHT22;60000;51.030;7.024;2024-02-26T08:16:24;6.17;89.46
72128;DHT22;60000;51.030;7.024;2024-02-26T08:18:50;6.17;89.41
72128;DHT22;60000;51.030;7.024;2024-02-26T08:21:15;6.17;89.49
72128;DHT22;60000;51.030;7.024;2024-02-26T08:23:43;6.19;89.55
72128;DHT22;60000;51.030;7.024;2024-02-26T08:26:08;6.17;89.51
72128;DHT22;60000;51.030;7.024;2024-02-26T08:28:37;6.19;89.57
72128;DHT22;60000;51.030;7.024;2024-02-26T08:31:02;6.20;89.58
72128;DHT22;60000;51.030;7.024;2024-02-26T08:33:28;6.23;89.65
72128;DHT22;60000;51.030;7.024;2024-02-26T08:35:53;6.22;89.58
72128;DHT22;60000;51.030;7.024;2024-02-26T08:38:19;6.22;89.64
72128;DHT22;60000;51.030;7.024;2024-02-26T08:40:44;6.23;89.75
72128;DHT22;60000;51.030;7.024;2024-02-26T08:43:09;6.24;89.76
72128;DHT22;60000;51.030;7.024;2024-02-26T08:45:35;6.23;89.77
72128;DHT22;60000;51.030;7.024;2024-02-26T08:48:00;6.27;89.82
72128;DHT22;60000;51.030;7.024;2024-02-26T08:50:25;6.26;89.80
72128;DHT22;60000;51.030;7.024;2024-02-26T08:52:51;6.30;89.85
72128;DHT22;60000;51.030;7.024;2024-02-26T08:55:18;6.29;89.80
72128;DHT22;60000;51.030;7.024;2024-02-26T08:57:44;6.30;89.61
72128;DHT22;60000;51.030;7.024;2024-02-26T09:00:09;6.34;89.65
72128;DHT22;60000;51.030;7.024;2024-02-26T09:02:35;6.34;89.58
72128;DHT22;60000;51.030;7.024;2024-02-26T09:05:00;6.34;89.69
72128;DHT22;60000;51.030;7.024;2024-02-26T09:07:25;6.37;89.69
72128;DHT22;60000;51.030;7.024;2024-02-26T09:09:51;6.34;89.66
72128;DHT22;60000;51.030;7.024;2024-02-26T09:12:16;6.38;89.63
72128;DHT22;60000;51.030;7.024;2024-02-26T09:14:41;6.38;89.28
72128;DHT22;60000;51.030;7.024;2024-02-26T09:17:06;6.38;89.23
72128;DHT22;60000;51.030;7.024;2024-02-26T09:19:32;6.38;89.22
72128;DHT22;60000;51.030;7.024;2024-02-26T09:21:58;6.40;89.18
72128;DHT22;60000;51.030;7.024;2024-02-26T09:24:24;6.40;88.98
72128;DHT22;60000;51.030;7.024;2024-02-26T09:26:50;6.40;88.99
72128;DHT22;60000;51.030;7.024;2024-02-26T09:29:15;6.38;89.01
72128;DHT22;60000;51.030;7.024;2024-02-26T09:31:40;6.41;88.96
72128;DHT22;60000;51.030;7.024;2024-02-26T09:34:07;6.41;88.85
72128;DHT22;60000;51.030;7.024;2024-02-26T09:36:33;6.40;88.84
72128;DHT22;60000;51.030;7.024;2024-02-26T09:38:58;6.40;88.81
72128;DHT22;60000;51.030;7.024;2024-02-26T09:41:23;6.40;88.84
72128;DHT22;60000;51.030;7.024;2024-02-26T09:43:55;6.41;88.79
72128;DHT22;60000;51.030;7.024;2024-02-26T09:46:21;6.44;88.98
72128;DHT22;60000;51.030;7.024;2024-02-26T09:48:47;6.44;88.97
72128;DHT22;60000;51.030;7.024;2024-02-26T09:51:14;6.45;88.89
72128;DHT22;60000;51.030;7.024;2024-02-26T09:53:43;6.41;89.01
72128;DHT22;60000;51.030;7.024;2024-02-26T09:56:09;6.43;88.86
72128;DHT22;60000;51.030;7.024;2024-02-26T09:58:36;6.44;88.87
72128;DHT22;60000;51.030;7.024;2024-02-26T10:01:02;6.43;88.96
72128;DHT22;60000;51.030;7.024;2024-02-26T10:03:38;6.43;89.09
72128;DHT22;60000;51.030;7.024;2024-02-26T10:06:06;6.45;88.98
72128;DHT22;60000;51.030;7.024;2024-02-26T10:08:32;6.47;89.08
72128;DHT22;60000;51.030;7.024;2024-02-26T10:10:58;6.48;88.84
72128;DHT22;60000;51.030;7.024;2024-02-26T10:13:23;6.50;89.08
72128;DHT22;60000;51.030;7.024;2024-02-26T10:15:48;6.47;88.71
72128;DHT22;60000;51.030;7.024;2024-02-26T10:18:14;6.50;88.88
72128;DHT22;60000;51.030;7.024;2024-02-26T10:20:40;6.53;88.94
72128;DHT22;60000;51.030;7.024;2024-02-26T10:23:05;6.54;89.01
72128;DHT22;60000;51.030;7.024;2024-02-26T10:25:31;6.60;88.97
72128;DHT22;60000;51.030;7.024;2024-02-26T10:28:01;6.60;88.92
72128;DHT22;60000;51.030;7.024;2024-02-26T10:30:29;6.64;88.98
72128;DHT22;60000;51.030;7.024;2024-02-26T10:32:55;6.65;89.01
72128;DHT22;60000;51.030;7.024;2024-02-26T10:35:21;6.67;88.97
72128;DHT22;60000;51.030;7.024;2024-02-26T10:37:47;6.68;89.01
72128;DHT22;60000;51.030;7.024;2024-02-26T10:40:14;6.72;88.99
72128;DHT22;60000;51.030;7.024;2024-02-26T10:42:41;6.71;88.76
72128;DHT22;60000;51.030;7.024;2024-02-26T10:45:08;6.77;88.90
72128;DHT22;60000;51.030;7.024;2024-02-26T10:47:37;6.78;89.03
72128;DHT22;60000;51.030;7.024;2024-02-26T10:50:04;6.82;88.77
72128;DHT22;60000;51.030;7.024;2024-02-26T10:52:33;6.87;88.87
72128;DHT22;60000;51.030;7.024;2024-02-26T10:55:03;6.89;88.83
72128;DHT22;60000;51.030;7.024;2024-02-26T10:57:40;6.96;89.02
72128;DHT22;60000;51.030;7.024;2024-02-26T11:00:06;7.02;88.70
72128;DHT22;60000;51.030;7.024;2024-02-26T11:02:33;7.03;88.59
72128;DHT22;60000;51.030;7.024;2024-02-26T11:05:05;7.09;88.58
72128;DHT22;60000;51.030;7.024;2024-02-26T11:07:31;7.09;88.58
72128;DHT22;60000;51.030;7.024;2024-02-26T11:10:02;7.15;88.62
72128;DHT22;60000;51.030;7.024;2024-02-26T11:12:29;7.19;88.38
72128;DHT22;60000;51.030;7.024;2024-02-26T11:14:55;7.18;88.33
72128;DHT22;60000;51.030;7.024;2024-02-26T11:17:26;7.19;88.05
72128;DHT22;60000;51.030;7.024;2024-02-26T11:19:53;7.20;88.29
72128;DHT22;60000;51.030;7.024;2024-02-26T11:22:20;7.23;88.42
72128;DHT22;60000;51.030;7.024;2024-02-26T11:24:47;7.27;88.28
72128;DHT22;60000;51.030;7.024;2024-02-26T11:27:13;7.29;88.05
72128;DHT22;60000;51.030;7.024;2024-02-26T11:29:47;7.29;88.20
72128;DHT22;60000;51.030;7.024;2024-02-26T11:32:13;7.32;88.00
72128;DHT22;60000;51.030;7.024;2024-02-26T11:34:40;7.30;88.00
72128;DHT22;60000;51.030;7.024;2024-02-26T11:37:13;7.30;87.97
72128;DHT22;60000;51.030;7.024;2024-02-26T11:39:41;7.33;87.91
72128;DHT22;60000;51.030;7.024;2024-02-26T11:42:08;7.36;88.09
72128;DHT22;60000;51.030;7.024;2024-02-26T11:44:34;7.37;87.83
72128;DHT22;60000;51.030;7.024;2024-02-26T11:47:10;7.39;87.85
72128;DHT22;60000;51.030;7.024;2024-02-26T11:49:35;7.42;87.89
72128;DHT22;60000;51.030;7.024;2024-02-26T11:52:05;7.44;87.98
72128;DHT22;60000;51.030;7.024;2024-02-26T11:54:52;7.44;87.98
72128;DHT22;60000;51.030;7.024;2024-02-26T11:57:28;7.47;87.84
72128;DHT22;60000;51.030;7.024;2024-02-26T12:00:15;7.54;88.11
72128;DHT22;60000;51.030;7.024;2024-02-26T12:02:49;7.56;87.86
72128;DHT22;60000;51.030;7.024;2024-02-26T12:05:17;7.64;88.10
72128;DHT22;60000;51.030;7.024;2024-02-26T12:07:49;7.67;88.18
72128;DHT22;60000;51.030;7.024;2024-02-26T12:12:55;7.78;87.99
72128;DHT22;60000;51.030;7.024;2024-02-26T12:15:23;7.82;87.90
72128;DHT22;60000;51.030;7.024;2024-02-26T12:17:49;7.82;87.48
72128;DHT22;60000;51.030;7.024;2024-02-26T12:20:16;7.92;87.97
72128;DHT22;60000;51.030;7.024;2024-02-26T12:22:45;7.95;87.68
72128;DHT22;60000;51.030;7.024;2024-02-26T12:25:10;8.02;87.80
72128;DHT22;60000;51.030;7.024;2024-02-26T12:27:36;8.05;87.25
72128;DHT22;60000;51.030;7.024;2024-02-26T12:30:03;8.06;87.36
72128;DHT22;60000;51.030;7.024;2024-02-26T12:32:28;8.09;86.88
72128;DHT22;60000;51.030;7.024;2024-02-26T12:34:54;8.12;86.84
72128;DHT22;60000;51.030;7.024;2024-02-26T12:37:19;8.11;86.67
72128;DHT22;60000;51.030;7.024;2024-02-26T12:39:45;8.13;87.06
72128;DHT22;60000;51.030;7.024;2024-02-26T12:42:11;8.16;86.88
72128;DHT22;60000;51.030;7.024;2024-02-26T12:44:37;8.18;86.76
72128;DHT22;60000;51.030;7.024;2024-02-26T12:47:04;8.18;86.36
72128;DHT22;60000;51.030;7.024;2024-02-26T12:49:30;8.13;85.87
72128;DHT22;60000;51.030;7.024;2024-02-26T12:51:55;8.15;86.29
72128;DHT22;60000;51.030;7.024;2024-02-26T12:54:28;8.12;85.92
72128;DHT22;60000;51.030;7.024;2024-02-26T12:56:54;8.13;86.05
72128;DHT22;60000;51.030;7.024;2024-02-26T12:59:19;8.16;85.76
72128;DHT22;60000;51.030;7.024;2024-02-26T13:01:45;8.12;85.39
72128;DHT22;60000;51.030;7.024;2024-02-26T13:04:10;8.06;85.37
72128;DHT22;60000;51.030;7.024;2024-02-26T13:06:36;8.06;85.28
72128;DHT22;60000;51.030;7.024;2024-02-26T13:09:01;8.05;85.51
72128;DHT22;60000;51.030;7.024;2024-02-26T13:11:28;8.05;85.39
72128;DHT22;60000;51.030;7.024;2024-02-26T13:13:54;8.09;85.76
72128;DHT22;60000;51.030;7.024;2024-02-26T13:16:23;8.12;85.79
72128;DHT22;60000;51.030;7.024;2024-02-26T13:18:49;8.16;85.96
72128;DHT22;60000;51.030;7.024;2024-02-26T13:21:15;8.18;85.67
72128;DHT22;60000;51.030;7.024;2024-02-26T13:23:43;8.21;85.64
72128;DHT22;60000;51.030;7.024;2024-02-26T13:26:12;8.21;85.61
72128;DHT22;60000;51.030;7.024;2024-02-26T13:28:38;8.21;85.25
72128;DHT22;60000;51.030;7.024;2024-02-26T13:31:03;8.19;85.29
72128;DHT22;60000;51.030;7.024;2024-02-26T13:33:31;8.25;85.64
72128;DHT22;60000;51.030;7.024;2024-02-26T13:35:58;8.25;85.29
72128;DHT22;60000;51.030;7.024;2024-02-26T13:38:23;8.24;85.36
72128;DHT22;60000;51.030;7.024;2024-02-26T13:40:50;8.26;85.43
72128;DHT22;60000;51.030;7.024;2024-02-26T13:43:15;8.22;84.88
72128;DHT22;60000;51.030;7.024;2024-02-26T13:45:41;8.21;84.90
72128;DHT22;60000;51.030;7.024;2024-02-26T13:48:08;8.22;85.22
72128;DHT22;60000;51.030;7.024;2024-02-26T13:50:36;8.26;85.62
72128;DHT22;60000;51.030;7.024;2024-02-26T13:53:02;8.31;85.24
72128;DHT22;60000;51.030;7.024;2024-02-26T13:55:28;8.33;85.47
72128;DHT22;60000;51.030;7.024;2024-02-26T13:57:56;8.32;85.37
72128;DHT22;60000;51.030;7.024;2024-02-26T14:00:22;8.38;85.11
72128;DHT22;60000;51.030;7.024;2024-02-26T14:02:47;8.32;84.46
72128;DHT22;60000;51.030;7.024;2024-02-26T14:05:13;8.31;84.21
72128;DHT22;60000;51.030;7.024;2024-02-26T14:07:39;8.29;84.47
72128;DHT22;60000;51.030;7.024;2024-02-26T14:10:05;8.29;84.39
72128;DHT22;60000;51.030;7.024;2024-02-26T14:12:30;8.31;84.12
72128;DHT22;60000;51.030;7.024;2024-02-26T14:14:55;8.32;84.23
72128;DHT22;60000;51.030;7.024;2024-02-26T14:17:21;8.28;83.58
72128;DHT22;60000;51.030;7.024;2024-02-26T14:19:47;8.28;83.77
72128;DHT22;60000;51.030;7.024;2024-02-26T14:22:13;8.26;83.71
72128;DHT22;60000;51.030;7.024;2024-02-26T14:24:39;8.25;83.36
72128;DHT22;60000;51.030;7.024;2024-02-26T14:27:06;8.26;83.42
72128;DHT22;60000;51.030;7.024;2024-02-26T14:29:33;8.25;83.00
72128;DHT22;60000;51.030;7.024;2024-02-26T14:31:58;8.28;82.72
72128;DHT22;60000;51.030;7.024;2024-02-26T14:34:23;8.31;82.76
72128;DHT22;60000;51.030;7.024;2024-02-26T14:36:49;8.33;82.85
72128;DHT22;60000;51.030;7.024;2024-02-26T14:39:14;8.36;82.68
72128;DHT22;60000;51.030;7.024;2024-02-26T14:41:40;8.39;82.56
72128;DHT22;60000;51.030;7.024;2024-02-26T14:44:05;8.46;82.45
72128;DHT22;60000;51.030;7.024;2024-02-26T14:46:30;8.50;82.20
72128;DHT22;60000;51.030;7.024;2024-02-26T14:48:56;8.54;82.30
72128;DHT22;60000;51.030;7.024;2024-02-26T14:51:24;8.54;82.32
72128;DHT22;60000;51.030;7.024;2024-02-26T14:53:50;8.62;82.31
72128;DHT22;60000;51.030;7.024;2024-02-26T14:56:15;8.59;82.12
72128;DHT22;60000;51.030;7.024;2024-02-26T14:58:40;8.60;81.93
72128;DHT22;60000;51.030;7.024;2024-02-26T15:01:06;8.57;81.95
72128;DHT22;60000;51.030;7.024;2024-02-26T15:03:32;8.57;81.99
72128;DHT22;60000;51.030;7.024;2024-02-26T15:05:58;8.59;81.91
72128;DHT22;60000;51.030;7.024;2024-02-26T15:08:23;8.54;81.96
72128;DHT22;60000;51.030;7.024;2024-02-26T15:10:48;8.57;82.09
72128;DHT22;60000;51.030;7.024;2024-02-26T15:13:14;8.52;82.34
72128;DHT22;60000;51.030;7.024;2024-02-26T15:15:43;8.54;82.77
72128;DHT22;60000;51.030;7.024;2024-02-26T15:18:09;8.53;83.20
72128;DHT22;60000;51.030;7.024;2024-02-26T15:20:37;8.54;83.45
72128;DHT22;60000;51.030;7.024;2024-02-26T15:23:04;8.54;83.81
72128;DHT22;60000;51.030;7.024;2024-02-26T15:25:29;8.52;84.23
72128;DHT22;60000;51.030;7.024;2024-02-26T15:27:55;8.50;84.45
72128;DHT22;60000;51.030;7.024;2024-02-26T15:30:20;8.48;84.86
72128;DHT22;60000;51.030;7.024;2024-02-26T15:32:46;8.46;84.79
72128;DHT22;60000;51.030;7.024;2024-02-26T15:35:11;8.48;85.00
72128;DHT22;60000;51.030;7.024;2024-02-26T15:37:36;8.43;85.06
72128;DHT22;60000;51.030;7.024;2024-02-26T15:40:02;8.43;85.17